createdAt,value
2022-08-03T00:01:49.915Z,20.69
2022-08-03T00:04:16.770Z,20.77
2022-08-03T00:06:43.815Z,20.77
2022-08-03T00:09:11.480Z,20.81
2022-08-03T00:11:38.285Z,20.72
2022-08-03T00:14:06.164Z,20.72
2022-08-03T00:16:33.004Z,20.76
2022-08-03T00:19:00.860Z,20.69
2022-08-03T00:21:28.622Z,20.70
2022-08-03T00:23:55.487Z,20.71
2022-08-03T00:26:22.232Z,20.69
2022-08-03T00:28:49.980Z,20.70
2022-08-03T00:31:16.825Z,20.68
2022-08-03T00:33:58.856Z,20.65
2022-08-03T00:36:27.067Z,20.69
2022-08-03T00:38:53.883Z,20.62
2022-08-03T00:41:20.745Z,20.62
2022-08-03T00:43:47.788Z,20.65
2022-08-03T00:46:19.224Z,20.61
2022-08-03T00:48:52.196Z,20.63
2022-08-03T00:51:21.109Z,20.55
2022-08-03T00:53:48.023Z,20.48
2022-08-03T00:56:16.433Z,20.56
2022-08-03T00:58:46.884Z,20.68
2022-08-03T01:01:15.703Z,20.65
2022-08-03T01:03:42.932Z,20.64
2022-08-03T01:06:20.140Z,20.59
2022-08-03T01:08:52.357Z,20.58
2022-08-03T01:12:00.631Z,20.57
2022-08-03T01:14:38.786Z,20.60
2022-08-03T01:17:14.560Z,20.49
2022-08-03T01:19:46.806Z,20.53
2022-08-03T01:22:42.429Z,20.49
2022-08-03T01:25:54.412Z,20.54
2022-08-03T01:28:43.204Z,20.40
2022-08-03T01:31:11.730Z,20.37
2022-08-03T01:33:46.916Z,20.43
2022-08-03T01:36:16.067Z,20.31
2022-08-03T01:38:47.647Z,20.24
2022-08-03T01:41:20.435Z,20.15
2022-08-03T01:43:55.454Z,20.06
2022-08-03T01:46:38.826Z,20.00
2022-08-03T01:49:09.371Z,19.94
2022-08-03T01:52:03.033Z,19.86
2022-08-03T01:54:27.110Z,19.87
2022-08-03T01:56:57.650Z,19.71
2022-08-03T01:59:26.449Z,19.66
2022-08-03T02:02:15.995Z,19.56
2022-08-03T02:04:43.721Z,19.55
2022-08-03T02:07:12.134Z,19.43
2022-08-03T02:09:41.493Z,19.35
2022-08-03T02:12:12.546Z,19.26
2022-08-03T02:14:41.420Z,19.22
2022-08-03T02:17:10.279Z,19.18
2022-08-03T02:19:38.765Z,19.11
2022-08-03T02:22:10.245Z,19.06
2022-08-03T02:24:37.223Z,19.03
2022-08-03T02:27:10.674Z,18.97
2022-08-03T02:29:41.016Z,18.93
2022-08-03T02:32:16.309Z,18.89
2022-08-03T02:34:46.081Z,18.86
2022-08-03T02:37:15.076Z,18.84
2022-08-03T02:39:44.107Z,18.82
2022-08-03T02:42:14.253Z,18.82
2022-08-03T02:44:47.641Z,18.81
2022-08-03T02:47:15.686Z,18.77
2022-08-03T02:49:50.678Z,18.72
2022-08-03T02:52:23.419Z,18.71
2022-08-03T02:54:53.990Z,18.63
2022-08-03T02:57:22.884Z,18.64
2022-08-03T02:59:51.409Z,18.61
2022-08-03T03:02:18.918Z,18.52
2022-08-03T03:05:51.701Z,18.46
2022-08-03T03:07:50.477Z,18.42
2022-08-03T03:10:22.586Z,18.35
2022-08-03T03:12:53.298Z,18.40
2022-08-03T03:15:20.390Z,18.34
2022-08-03T03:17:49.941Z,18.32
2022-08-03T03:20:26.228Z,18.29
2022-08-03T03:23:00.740Z,18.24
2022-08-03T03:25:30.574Z,18.22
2022-08-03T03:27:58.126Z,18.18
2022-08-03T03:30:26.127Z,18.17
2022-08-03T03:32:53.703Z,18.21
2022-08-03T03:35:20.528Z,18.17
2022-08-03T03:37:47.371Z,18.18
2022-08-03T03:40:14.497Z,18.18
2022-08-03T03:42:41.680Z,18.19
2022-08-03T03:45:09.266Z,18.15
2022-08-03T03:47:36.055Z,18.20
2022-08-03T03:50:04.756Z,18.22
2022-08-03T03:52:34.865Z,18.22
2022-08-03T03:55:01.952Z,18.17
2022-08-03T03:57:29.430Z,18.20
2022-08-03T03:59:56.880Z,18.18
2022-08-03T04:02:24.245Z,18.21
2022-08-03T04:05:09.798Z,18.30
2022-08-03T04:08:17.930Z,18.34
2022-08-03T04:11:00.231Z,18.29
2022-08-03T04:13:35.228Z,18.34
2022-08-03T04:16:03.523Z,18.42
2022-08-03T04:18:33.010Z,18.49
2022-08-03T04:21:03.932Z,18.50
2022-08-03T04:23:34.820Z,18.68
2022-08-03T04:26:03.829Z,18.72
2022-08-03T04:28:33.356Z,18.76
2022-08-03T04:31:05.866Z,18.85
2022-08-03T04:33:34.950Z,18.93
2022-08-03T04:36:06.304Z,19.07
2022-08-03T04:38:36.752Z,19.13
2022-08-03T04:41:04.143Z,19.29
2022-08-03T04:43:33.946Z,19.37
2022-08-03T04:46:02.885Z,19.56
2022-08-03T04:48:29.816Z,19.67
2022-08-03T04:50:56.995Z,19.76
2022-08-03T04:53:23.726Z,19.87
2022-08-03T04:55:50.614Z,19.90
2022-08-03T04:58:17.376Z,19.94
2022-08-03T05:00:45.636Z,20.05
2022-08-03T05:03:20.414Z,20.44
2022-08-03T05:06:09.498Z,20.89
2022-08-03T05:08:45.908Z,21.07
2022-08-03T05:11:15.945Z,21.21
2022-08-03T05:13:43.638Z,21.14
2022-08-03T05:16:10.467Z,20.99
2022-08-03T05:18:37.504Z,21.47
2022-08-03T05:21:04.952Z,21.89
2022-08-03T05:23:32.214Z,22.29
2022-08-03T05:25:58.965Z,22.46
2022-08-03T05:28:25.684Z,22.28
2022-08-03T05:30:52.387Z,22.62
2022-08-03T05:33:19.320Z,23.07
2022-08-03T05:35:57.922Z,23.36
2022-08-03T05:38:34.628Z,22.99
2022-08-03T05:41:20.434Z,23.11
2022-08-03T05:43:50.773Z,23.51
2022-08-03T05:46:18.094Z,23.80
2022-08-03T05:48:44.909Z,24.09
2022-08-03T05:51:12.151Z,24.32
2022-08-03T05:53:40.810Z,24.23
2022-08-03T05:56:15.005Z,24.39
2022-08-03T05:58:48.603Z,24.59
2022-08-03T06:01:17.154Z,24.45
2022-08-03T06:03:45.809Z,24.66
2022-08-03T06:06:12.636Z,24.69
2022-08-03T06:08:40.410Z,24.97
2022-08-03T06:11:07.832Z,25.73
2022-08-03T06:13:34.739Z,25.18
2022-08-03T06:16:01.660Z,24.75
2022-08-03T06:18:28.557Z,24.85
2022-08-03T06:20:55.563Z,24.87
2022-08-03T06:23:22.471Z,25.16
2022-08-03T06:25:49.545Z,25.25
2022-08-03T06:28:52.391Z,24.87
2022-08-03T06:31:06.574Z,25.54
2022-08-03T06:34:30.757Z,25.60
2022-08-03T06:36:20.571Z,25.89
2022-08-03T06:38:47.361Z,26.32
2022-08-03T06:41:14.191Z,26.36
2022-08-03T06:44:02.982Z,26.46
2022-08-03T06:46:27.722Z,26.78
2022-08-03T06:48:56.530Z,26.80
2022-08-03T06:52:03.630Z,27.05
2022-08-03T06:54:10.902Z,26.79
2022-08-03T06:56:38.106Z,27.19
2022-08-03T06:59:04.992Z,27.13
2022-08-03T07:01:31.780Z,27.01
2022-08-03T07:03:58.767Z,26.64
2022-08-03T07:06:25.509Z,26.87
2022-08-03T07:08:55.464Z,27.81
2022-08-03T07:11:24.453Z,28.01
2022-08-03T07:13:51.206Z,28.88
2022-08-03T07:16:17.961Z,29.60
2022-08-03T07:18:44.795Z,29.16
2022-08-03T07:21:12.769Z,29.44
2022-08-03T07:23:39.679Z,29.61
2022-08-03T07:26:06.457Z,29.05
2022-08-03T07:28:33.306Z,29.75
2022-08-03T07:31:00.063Z,29.58
2022-08-03T07:33:26.882Z,29.24
2022-08-03T07:35:53.666Z,29.65
2022-08-03T07:38:21.180Z,29.20
2022-08-03T07:40:48.428Z,30.12
2022-08-03T07:43:15.441Z,29.47
2022-08-03T07:45:42.121Z,29.07
2022-08-03T07:48:12.418Z,29.38
2022-08-03T07:50:39.563Z,29.03
2022-08-03T07:53:06.384Z,28.97
2022-08-03T07:55:33.328Z,29.13
2022-08-03T07:58:12.583Z,28.78
2022-08-03T08:00:39.604Z,28.17
2022-08-03T08:03:06.574Z,28.52
2022-08-03T08:05:34.053Z,28.56
2022-08-03T08:08:01.708Z,28.54
2022-08-03T08:10:28.986Z,28.87
2022-08-03T08:12:56.763Z,28.26
2022-08-03T08:15:24.025Z,28.56
2022-08-03T08:17:54.234Z,28.53
2022-08-03T08:20:30.718Z,28.46
2022-08-03T08:23:08.883Z,28.19
2022-08-03T08:25:51.820Z,28.69
2022-08-03T08:28:22.412Z,28.28
2022-08-03T08:30:59.142Z,27.99
2022-08-03T08:33:37.245Z,28.17
2022-08-03T08:36:14.755Z,28.25
2022-08-03T08:38:42.924Z,27.97
2022-08-03T08:41:11.242Z,28.32
2022-08-03T08:43:38.290Z,28.20
2022-08-03T08:46:08.353Z,28.30
2022-08-03T08:48:38.746Z,28.78
2022-08-03T08:51:05.976Z,28.65
2022-08-03T08:53:36.625Z,28.73
2022-08-03T08:56:04.763Z,28.64
2022-08-03T08:58:41.779Z,28.75
2022-08-03T09:01:08.493Z,28.93
2022-08-03T09:03:35.674Z,29.04
2022-08-03T09:06:03.414Z,29.48
2022-08-03T09:08:32.897Z,29.68
2022-08-03T09:11:00.174Z,29.93
2022-08-03T09:13:27.234Z,30.34
2022-08-03T09:16:14.952Z,30.92
2022-08-03T09:18:44.568Z,31.11
2022-08-03T09:21:34.416Z,31.08
2022-08-03T09:24:05.406Z,31.20
2022-08-03T09:26:37.818Z,31.36
2022-08-03T09:29:14.576Z,31.95
2022-08-03T09:31:46.722Z,32.01
2022-08-03T09:34:18.308Z,31.83
2022-08-03T09:36:47.065Z,32.20
2022-08-03T09:39:19.367Z,32.34
2022-08-03T09:42:08.177Z,32.40
2022-08-03T09:44:43.297Z,33.05
2022-08-03T09:47:11.875Z,33.45
2022-08-03T09:49:41.428Z,33.83
2022-08-03T09:52:36.807Z,33.64
2022-08-03T09:56:30.720Z,33.91
2022-08-03T09:58:06.464Z,34.22
2022-08-03T10:00:33.302Z,33.86
2022-08-03T10:03:05.090Z,33.80
2022-08-03T10:05:33.247Z,34.14
2022-08-03T10:08:00.124Z,34.27
2022-08-03T10:10:29.117Z,34.77
2022-08-03T10:13:00.167Z,34.53
2022-08-03T10:16:23.348Z,34.80
2022-08-03T10:18:14.445Z,34.56
2022-08-03T10:20:49.446Z,34.53
2022-08-03T10:23:18.521Z,35.21
2022-08-03T10:25:48.385Z,34.73
2022-08-03T10:28:19.140Z,34.49
2022-08-03T10:30:50.299Z,34.89
2022-08-03T10:33:51.813Z,35.11
2022-08-03T10:36:07.580Z,35.45
2022-08-03T10:38:40.828Z,35.51
2022-08-03T10:41:09.049Z,35.82
2022-08-03T10:43:54.776Z,35.14
2022-08-03T10:46:21.636Z,35.54
2022-08-03T10:48:50.654Z,35.60
2022-08-03T10:51:20.079Z,35.69
2022-08-03T10:53:54.931Z,35.73
2022-08-03T10:56:54.388Z,35.51
2022-08-03T10:59:46.573Z,35.64
2022-08-03T11:02:17.044Z,35.88
2022-08-03T11:04:47.028Z,35.56
2022-08-03T11:07:20.922Z,36.03
2022-08-03T11:09:56.525Z,36.12
2022-08-03T11:12:32.606Z,35.73
2022-08-03T11:15:07.295Z,36.45
2022-08-03T11:17:46.820Z,36.57
2022-08-03T11:20:49.134Z,36.24
2022-08-03T11:23:18.157Z,36.44
2022-08-03T11:26:10.686Z,35.71
2022-08-03T11:28:41.277Z,36.57
2022-08-03T11:31:48.170Z,35.87
2022-08-03T11:34:12.142Z,36.72
2022-08-03T11:37:16.794Z,36.44
2022-08-03T11:39:46.468Z,36.96
2022-08-03T11:42:22.276Z,37.00
2022-08-03T11:44:59.978Z,37.32
2022-08-03T11:47:28.720Z,37.73
2022-08-03T11:50:02.002Z,37.16
2022-08-03T11:52:36.480Z,36.68
2022-08-03T11:55:09.780Z,36.19
2022-08-03T11:59:01.191Z,36.18
2022-08-03T12:00:25.943Z,36.56
2022-08-03T12:03:01.508Z,36.63
2022-08-03T12:05:51.509Z,36.46
2022-08-03T12:08:28.383Z,36.11
2022-08-03T12:10:57.523Z,35.97
2022-08-03T12:14:43.825Z,36.40
2022-08-03T12:16:21.920Z,36.99
2022-08-03T12:19:00.144Z,36.82
2022-08-03T12:21:28.217Z,36.93
2022-08-03T12:24:00.393Z,37.29
2022-08-03T12:26:28.970Z,36.76
2022-08-03T12:28:56.162Z,37.20
2022-08-03T12:31:23.082Z,36.95
2022-08-03T12:34:04.934Z,36.98
2022-08-03T12:36:34.511Z,37.27
2022-08-03T12:39:04.817Z,37.02
2022-08-03T12:41:35.505Z,36.95
2022-08-03T12:44:07.234Z,37.47
2022-08-03T12:46:47.437Z,37.70
2022-08-03T12:49:18.798Z,37.92
2022-08-03T12:51:45.706Z,37.67
2022-08-03T12:54:32.073Z,37.72
2022-08-03T12:57:07.284Z,37.64
2022-08-03T12:59:40.744Z,37.77
2022-08-03T13:02:19.432Z,37.95
2022-08-03T13:04:51.563Z,37.80
2022-08-03T13:07:19.406Z,38.14
2022-08-03T13:09:55.305Z,37.90
2022-08-03T13:12:25.040Z,38.07
2022-08-03T13:14:55.484Z,37.30
2022-08-03T13:17:22.770Z,37.94
2022-08-03T13:19:50.478Z,38.19
2022-08-03T13:22:18.293Z,38.14
2022-08-03T13:24:46.501Z,38.45
2022-08-03T13:28:02.025Z,38.24
2022-08-03T13:30:00.966Z,38.07
2022-08-03T13:32:27.734Z,37.40
2022-08-03T13:34:54.596Z,36.82
2022-08-03T13:37:21.882Z,37.03
2022-08-03T13:39:59.406Z,37.55
2022-08-03T13:42:34.776Z,37.37
2022-08-03T13:45:03.188Z,37.54
2022-08-03T13:47:30.340Z,37.88
2022-08-03T13:50:01.486Z,38.11
2022-08-03T13:52:38.394Z,37.67
2022-08-03T13:55:06.664Z,38.10
2022-08-03T13:58:05.034Z,38.39
2022-08-03T14:00:28.190Z,37.75
2022-08-03T14:03:09.509Z,37.75
2022-08-03T14:05:40.145Z,37.85
2022-08-03T14:08:07.708Z,38.04
2022-08-03T14:10:36.480Z,38.30
2022-08-03T14:13:04.490Z,38.26
2022-08-03T14:15:31.844Z,37.03
2022-08-03T14:18:04.200Z,37.16
2022-08-03T14:20:37.321Z,37.67
2022-08-03T14:23:06.991Z,37.25
2022-08-03T14:25:44.159Z,37.05
2022-08-03T14:28:23.129Z,37.34
2022-08-03T14:30:51.751Z,38.00
2022-08-03T14:33:18.708Z,37.04
2022-08-03T14:35:45.562Z,37.74
2022-08-03T14:38:12.515Z,37.69
2022-08-03T14:40:39.381Z,37.48
2022-08-03T14:43:06.211Z,37.80
2022-08-03T14:45:34.233Z,37.34
2022-08-03T14:50:33.784Z,36.98
2022-08-03T14:50:51.766Z,37.32
2022-08-03T14:53:19.576Z,37.20
2022-08-03T14:55:50.089Z,36.53
2022-08-03T14:58:21.967Z,35.74
2022-08-03T15:00:50.638Z,35.52
2022-08-03T15:03:21.433Z,35.65
2022-08-03T15:05:50.232Z,35.78
2022-08-03T15:08:17.779Z,35.08
2022-08-03T15:10:45.559Z,35.89
2022-08-03T15:13:16.719Z,35.64
2022-08-03T15:15:44.226Z,36.10
2022-08-03T15:18:11.828Z,36.33
2022-08-03T15:20:46.945Z,35.79
2022-08-03T15:23:15.400Z,35.60
2022-08-03T15:26:32.316Z,35.28
2022-08-03T15:28:31.146Z,35.14
2022-08-03T15:30:57.937Z,35.19
2022-08-03T15:33:24.945Z,34.75
2022-08-03T15:35:53.043Z,34.38
2022-08-03T15:38:26.285Z,34.24
2022-08-03T15:40:59.185Z,34.06
2022-08-03T15:43:26.239Z,35.07
2022-08-03T15:48:41.410Z,35.99
2022-08-03T15:51:09.174Z,36.42
2022-08-03T15:53:37.094Z,36.52
2022-08-03T15:56:10.000Z,36.51
2022-08-03T15:59:04.450Z,36.59
2022-08-03T16:01:27.042Z,36.22
2022-08-03T16:03:54.046Z,35.24
2022-08-03T16:06:34.955Z,35.04
2022-08-03T16:09:05.757Z,34.70
2022-08-03T16:11:51.291Z,34.70
2022-08-03T16:14:34.452Z,34.52
2022-08-03T16:17:05.360Z,34.22
2022-08-03T16:19:32.199Z,34.23
2022-08-03T16:21:59.393Z,34.54
2022-08-03T16:24:28.298Z,34.32
2022-08-03T16:26:56.390Z,34.01
2022-08-03T16:29:23.801Z,34.10
2022-08-03T16:31:51.944Z,34.00
2022-08-03T16:34:20.190Z,33.66
2022-08-03T16:36:47.185Z,33.25
2022-08-03T16:39:14.142Z,33.43
2022-08-03T16:41:54.315Z,33.13
2022-08-03T16:44:29.568Z,32.84
2022-08-03T16:46:56.553Z,32.76
2022-08-03T16:49:53.669Z,32.53
2022-08-03T16:52:10.385Z,32.34
2022-08-03T16:54:39.969Z,32.23
2022-08-03T16:57:07.500Z,32.05
2022-08-03T16:59:36.212Z,32.03
2022-08-03T17:02:08.139Z,32.09
2022-08-03T17:04:40.109Z,31.90
2022-08-03T17:07:07.752Z,31.94
2022-08-03T17:09:38.146Z,31.87
2022-08-03T17:12:07.200Z,31.68
2022-08-03T17:14:33.986Z,31.65
2022-08-03T17:17:03.853Z,31.70
2022-08-03T17:19:32.553Z,31.37
2022-08-03T17:22:09.278Z,31.39
2022-08-03T17:24:40.925Z,31.39
2022-08-03T17:28:41.728Z,31.33
2022-08-03T17:30:07.828Z,31.16
2022-08-03T17:32:42.403Z,30.98
2022-08-03T17:35:10.867Z,30.85
2022-08-03T17:37:58.493Z,30.55
2022-08-03T17:40:25.783Z,30.54
2022-08-03T17:42:52.779Z,30.46
2022-08-03T17:45:20.482Z,30.21
2022-08-03T17:47:57.031Z,30.08
2022-08-03T17:50:32.732Z,30.00
2022-08-03T17:53:07.084Z,29.88
2022-08-03T17:58:42.157Z,29.81
2022-08-03T18:02:00.629Z,29.81
2022-08-03T18:04:30.240Z,29.52
2022-08-03T18:06:59.486Z,29.52
2022-08-03T18:10:04.349Z,29.58
2022-08-03T18:12:27.052Z,29.37
2022-08-03T18:15:07.738Z,29.17
2022-08-03T18:17:58.222Z,29.13
2022-08-03T18:20:32.967Z,28.99
2022-08-03T18:23:04.723Z,29.01
2022-08-03T18:25:43.001Z,29.05
2022-08-03T18:28:18.840Z,28.83
2022-08-03T18:30:54.729Z,28.84
2022-08-03T18:34:19.022Z,28.65
2022-08-03T18:36:29.422Z,28.61
2022-08-03T18:39:01.849Z,28.64
2022-08-03T18:41:34.557Z,28.46
2022-08-03T18:44:08.788Z,28.25
2022-08-03T18:47:16.885Z,28.33
2022-08-03T18:49:52.309Z,28.17
2022-08-03T18:52:35.580Z,28.11
2022-08-03T18:55:20.331Z,27.94
2022-08-03T18:58:01.639Z,27.80
2022-08-03T19:00:54.033Z,27.74
2022-08-03T19:03:24.684Z,27.67
2022-08-03T19:06:09.472Z,27.56
2022-08-03T19:08:55.700Z,27.40
2022-08-03T19:12:14.065Z,27.23
2022-08-03T19:14:42.293Z,27.01
2022-08-03T19:17:11.279Z,27.01
2022-08-03T19:19:43.659Z,26.98
2022-08-03T19:22:12.764Z,26.97
2022-08-03T19:24:45.534Z,26.86
2022-08-03T19:27:13.587Z,26.67
2022-08-03T19:32:34.316Z,26.32
2022-08-03T19:35:03.637Z,26.21
2022-08-03T19:37:38.619Z,26.17
2022-08-03T19:40:10.665Z,26.21
2022-08-03T19:42:44.398Z,26.16
2022-08-03T19:45:15.567Z,26.13
2022-08-03T19:47:55.783Z,26.02
2022-08-03T19:50:25.475Z,25.87
2022-08-03T19:52:53.199Z,25.79
2022-08-03T19:55:20.379Z,25.69
2022-08-03T19:57:49.250Z,25.59
2022-08-03T20:00:19.880Z,25.50
2022-08-03T20:02:47.525Z,25.37
2022-08-03T20:05:17.932Z,25.34
2022-08-03T20:07:47.729Z,25.28
2022-08-03T20:10:18.595Z,25.18
2022-08-03T20:12:46.413Z,25.12
2022-08-03T20:15:13.282Z,25.13
2022-08-03T20:17:57.068Z,25.20
2022-08-03T20:20:29.589Z,25.07
2022-08-03T20:22:58.218Z,25.01
2022-08-03T20:25:38.516Z,24.94
2022-08-03T20:28:26.764Z,24.87
2022-08-03T20:30:53.915Z,24.84
2022-08-03T20:33:20.871Z,24.76
2022-08-03T20:36:01.328Z,24.65
2022-08-03T20:38:28.400Z,24.56
2022-08-03T20:40:56.516Z,24.55
2022-08-03T20:43:26.019Z,24.49
2022-08-03T20:45:58.397Z,24.49
2022-08-03T20:48:42.917Z,24.45
2022-08-03T20:51:20.067Z,24.53
2022-08-03T20:53:57.198Z,24.34
2022-08-03T20:56:31.840Z,24.32
2022-08-03T20:59:05.787Z,24.17
2022-08-03T21:01:36.385Z,24.04
2022-08-03T21:04:06.738Z,24.05
2022-08-03T21:06:45.530Z,23.92
2022-08-03T21:09:25.085Z,23.96
2022-08-03T21:12:08.217Z,24.03
2022-08-03T21:13:02.300Z,26.57
2022-08-03T21:13:04.851Z,29.97
2022-08-03T21:14:43.292Z,24.00
2022-08-03T21:17:19.437Z,23.92
2022-08-03T21:19:59.207Z,23.72
2022-08-03T21:22:27.967Z,23.71
2022-08-03T21:24:57.209Z,23.60
2022-08-03T21:27:24.592Z,23.55
2022-08-03T21:29:52.992Z,23.43
2022-08-03T21:32:32.816Z,23.39
2022-08-03T21:35:01.178Z,23.29
2022-08-03T21:37:29.094Z,23.26
2022-08-03T21:39:56.584Z,23.16
2022-08-03T21:42:24.131Z,23.11
2022-08-03T21:44:52.462Z,23.07
2022-08-03T21:47:22.426Z,23.00
2022-08-03T21:50:06.658Z,23.01
2022-08-03T21:52:41.580Z,23.00
2022-08-03T21:55:09.332Z,22.92
2022-08-03T21:57:51.286Z,22.91
2022-08-03T22:00:20.830Z,22.85
2022-08-03T22:02:54.765Z,22.77
2022-08-03T22:05:29.061Z,22.72
2022-08-03T22:08:10.754Z,22.67
2022-08-03T22:10:38.268Z,22.61
2022-08-03T22:13:05.310Z,22.55
2022-08-03T22:15:33.075Z,22.46
2022-08-03T22:18:03.575Z,22.52
2022-08-03T22:20:30.935Z,22.39
2022-08-03T22:23:03.516Z,22.37
2022-08-03T22:25:34.133Z,22.31
2022-08-03T22:28:02.802Z,22.34
2022-08-03T22:30:31.511Z,22.27
2022-08-03T22:32:59.577Z,22.23
2022-08-03T22:35:27.832Z,22.18
2022-08-03T22:37:57.255Z,22.11
2022-08-03T22:40:24.645Z,22.10
2022-08-03T22:42:52.587Z,22.08
2022-08-03T22:46:06.445Z,22.13
2022-08-03T22:48:08.236Z,21.97
2022-08-03T22:50:35.183Z,22.04
2022-08-03T22:53:02.883Z,21.98
2022-08-03T22:55:30.163Z,21.91
2022-08-03T22:57:57.138Z,21.99
2022-08-03T23:00:24.746Z,22.04
2022-08-03T23:02:54.014Z,21.93
2022-08-03T23:06:02.507Z,21.83
2022-08-03T23:08:13.928Z,21.61
2022-08-03T23:10:46.781Z,21.59
2022-08-03T23:13:18.663Z,21.68
2022-08-03T23:15:56.590Z,21.72
2022-08-03T23:18:24.593Z,21.64
2022-08-03T23:20:53.250Z,21.66
2022-08-03T23:23:20.854Z,21.64
2022-08-03T23:25:50.652Z,21.77
2022-08-03T23:28:18.242Z,21.73
2022-08-03T23:30:45.754Z,21.58
2022-08-03T23:33:16.398Z,21.44
2022-08-03T23:36:29.820Z,21.42
2022-08-03T23:38:48.438Z,21.42
2022-08-03T23:41:18.573Z,21.32
2022-08-03T23:43:52.059Z,21.25
2022-08-03T23:46:24.204Z,21.21
2022-08-03T23:48:51.413Z,21.19
2022-08-03T23:51:42.259Z,21.18
2022-08-03T23:54:24.322Z,21.08
2022-08-03T23:57:17.739Z,21.06
2022-08-03T23:59:52.066Z,21.00
